createdAt,value
2023-05-05T00:00:15.476Z,56.16
2023-05-05T00:01:15.462Z,54.86
2023-05-05T00:02:15.543Z,60.05
2023-05-05T00:03:15.496Z,56.62
2023-05-05T00:04:16.551Z,61.52
2023-05-05T00:05:15.432Z,50.15
2023-05-05T00:06:15.428Z,51.54
2023-05-05T00:07:15.452Z,55.47
2023-05-05T00:08:15.410Z,56.97
2023-05-05T00:09:15.389Z,50.79
2023-05-05T00:10:15.397Z,48.33
2023-05-05T00:11:15.380Z,50.76
2023-05-05T00:12:15.401Z,61.22
2023-05-05T00:13:15.378Z,58.14
2023-05-05T00:14:15.365Z,48.15
2023-05-05T00:15:15.342Z,52.11
2023-05-05T00:16:15.366Z,52.60
2023-05-05T00:17:15.424Z,58.72
2023-05-05T00:18:15.319Z,56.94
2023-05-05T00:19:15.319Z,50.74
2023-05-05T00:20:15.308Z,46.38
2023-05-05T00:21:15.325Z,49.04
2023-05-05T00:22:15.298Z,50.70
2023-05-05T00:23:15.283Z,55.39
2023-05-05T00:24:15.297Z,58.49
2023-05-05T00:25:15.268Z,56.61
2023-05-05T00:26:15.291Z,48.31
2023-05-05T00:27:15.262Z,48.85
2023-05-05T00:28:15.251Z,48.57
2023-05-05T00:29:15.239Z,59.17
2023-05-05T00:30:15.250Z,56.81
2023-05-05T00:31:15.267Z,58.04
2023-05-05T00:32:15.213Z,57.56
2023-05-05T00:33:15.210Z,51.93
2023-05-05T00:34:15.201Z,52.87
2023-05-05T00:35:15.218Z,56.34
2023-05-05T00:36:15.186Z,46.85
2023-05-05T00:37:15.180Z,43.84
2023-05-05T00:38:15.174Z,52.28
2023-05-05T00:39:15.162Z,61.54
2023-05-05T00:40:15.192Z,53.38
2023-05-05T00:41:15.150Z,49.74
2023-05-05T00:42:15.147Z,58.49
2023-05-05T00:43:15.137Z,47.37
2023-05-05T00:44:15.128Z,47.35
2023-05-05T00:45:15.146Z,48.58
2023-05-05T00:46:15.152Z,55.47
2023-05-05T00:47:15.100Z,57.35
2023-05-05T00:48:15.088Z,54.19
2023-05-05T00:49:15.109Z,60.24
2023-05-05T00:50:15.107Z,52.00
2023-05-05T00:51:15.067Z,61.60
2023-05-05T00:52:15.071Z,56.68
2023-05-05T00:53:15.063Z,59.19
2023-05-05T00:54:15.075Z,61.18
2023-05-05T00:55:15.046Z,61.89
2023-05-05T00:56:15.032Z,56.83
2023-05-05T00:57:15.048Z,51.43
2023-05-05T00:58:15.022Z,56.65
2023-05-05T00:59:15.038Z,49.94
2023-05-05T01:00:15.000Z,44.55
2023-05-05T01:01:15.041Z,50.10
2023-05-05T01:02:14.988Z,49.04
2023-05-05T01:03:15.073Z,54.20
2023-05-05T01:04:14.997Z,51.51
2023-05-05T01:05:14.987Z,51.17
2023-05-05T01:06:14.957Z,55.44
2023-05-05T01:07:14.963Z,54.03
2023-05-05T01:08:14.971Z,48.54
2023-05-05T01:09:14.942Z,52.54
2023-05-05T01:10:22.433Z,54.92
2023-05-05T01:11:16.925Z,48.54
2023-05-05T01:12:14.914Z,55.72
2023-05-05T01:13:14.954Z,51.50
2023-05-05T01:14:14.892Z,60.12
2023-05-05T01:15:14.895Z,51.06
2023-05-05T01:16:14.912Z,58.47
2023-05-05T01:17:14.869Z,58.41
2023-05-05T01:18:14.886Z,53.64
2023-05-05T01:19:14.860Z,54.47
2023-05-05T01:20:14.880Z,52.73
2023-05-05T01:21:14.838Z,50.40
2023-05-05T01:22:14.862Z,56.31
2023-05-05T01:23:14.857Z,60.41
2023-05-05T01:24:14.818Z,62.07
2023-05-05T01:25:14.808Z,52.98
2023-05-05T01:26:14.800Z,48.98
2023-05-05T01:27:14.821Z,59.79
2023-05-05T01:28:14.785Z,64.11
2023-05-05T01:29:14.773Z,55.18
2023-05-05T01:30:14.761Z,54.98
2023-05-05T01:31:14.784Z,45.87
2023-05-05T01:32:14.794Z,57.32
2023-05-05T01:33:14.746Z,57.39
2023-05-05T01:34:14.743Z,50.28
2023-05-05T01:35:14.741Z,54.36
2023-05-05T01:36:14.745Z,51.11
2023-05-05T01:37:14.734Z,51.77
2023-05-05T01:38:14.711Z,58.45
2023-05-05T01:39:14.700Z,64.18
2023-05-05T01:40:14.755Z,50.02
2023-05-05T01:41:14.706Z,46.41
2023-05-05T01:42:14.668Z,50.26
2023-05-05T01:43:14.664Z,49.54
2023-05-05T01:44:14.654Z,52.85
2023-05-05T01:45:14.648Z,51.33
2023-05-05T01:46:14.809Z,46.53
2023-05-05T01:47:14.649Z,46.33
2023-05-05T01:48:14.630Z,50.23
2023-05-05T01:49:14.620Z,46.72
2023-05-05T01:50:14.635Z,53.25
2023-05-05T01:51:14.622Z,47.30
2023-05-05T01:52:14.589Z,45.93
2023-05-05T01:53:14.593Z,57.76
2023-05-05T01:54:14.581Z,51.26
2023-05-05T01:55:14.593Z,59.45
2023-05-05T01:56:14.573Z,57.06
2023-05-05T01:57:14.571Z,55.97
2023-05-05T01:58:14.563Z,52.46
2023-05-05T01:59:14.547Z,54.16
2023-05-05T02:00:14.936Z,50.65
2023-05-05T02:01:14.574Z,60.39
2023-05-05T02:02:14.532Z,66.95
2023-05-05T02:03:14.641Z,59.79
2023-05-05T02:04:14.569Z,50.97
2023-05-05T02:05:14.521Z,60.93
2023-05-05T02:06:14.493Z,57.88
2023-05-05T02:07:14.512Z,52.95
2023-05-05T02:08:15.488Z,57.25
2023-05-05T02:09:14.487Z,60.35
2023-05-05T02:10:14.456Z,45.54
2023-05-05T02:11:14.458Z,46.70
2023-05-05T02:12:14.456Z,51.57
2023-05-05T02:13:14.495Z,55.51
2023-05-05T02:14:14.454Z,60.18
2023-05-05T02:15:14.438Z,56.99
2023-05-05T02:16:14.428Z,57.03
2023-05-05T02:17:14.406Z,59.21
2023-05-05T02:18:14.431Z,51.19
2023-05-05T02:19:14.424Z,52.26
2023-05-05T02:20:14.394Z,56.54
2023-05-05T02:21:14.382Z,57.56
2023-05-05T02:22:14.376Z,54.70
2023-05-05T02:23:14.382Z,56.64
2023-05-05T02:24:14.375Z,59.72
2023-05-05T02:25:14.342Z,53.94
2023-05-05T02:26:14.334Z,50.76
2023-05-05T02:27:14.321Z,55.85
2023-05-05T02:28:14.348Z,60.69
2023-05-05T02:29:14.314Z,58.08
2023-05-05T02:30:14.298Z,54.58
2023-05-05T02:31:14.353Z,55.57
2023-05-05T02:32:14.286Z,54.60
2023-05-05T02:33:14.316Z,55.38
2023-05-05T02:34:14.271Z,56.74
2023-05-05T02:35:14.259Z,60.07
2023-05-05T02:36:14.256Z,53.39
2023-05-05T02:37:14.276Z,59.23
2023-05-05T02:38:14.267Z,62.38
2023-05-05T02:39:14.232Z,63.74
2023-05-05T02:40:14.220Z,53.73
2023-05-05T02:41:14.209Z,58.96
2023-05-05T02:42:14.243Z,57.87
2023-05-05T02:43:14.230Z,55.25
2023-05-05T02:44:14.330Z,57.84
2023-05-05T02:45:14.185Z,55.15
2023-05-05T02:46:14.207Z,50.86
2023-05-05T02:47:14.193Z,57.50
2023-05-05T02:48:14.158Z,56.83
2023-05-05T02:49:14.151Z,55.64
2023-05-05T02:50:14.153Z,57.83
2023-05-05T02:51:14.130Z,56.70
2023-05-05T02:52:14.165Z,52.96
2023-05-05T02:53:14.115Z,51.30
2023-05-05T02:54:14.111Z,59.58
2023-05-05T02:55:14.105Z,58.99
2023-05-05T02:56:14.115Z,54.44
2023-05-05T02:57:14.115Z,54.60
2023-05-05T02:58:14.074Z,54.89
2023-05-05T02:59:16.188Z,57.09
2023-05-05T03:00:15.059Z,54.00
2023-05-05T03:01:14.103Z,59.21
2023-05-05T03:02:14.046Z,60.34
2023-05-05T03:03:14.219Z,60.12
2023-05-05T03:04:14.128Z,51.73
2023-05-05T03:05:14.026Z,57.85
2023-05-05T03:06:14.036Z,63.63
2023-05-05T03:07:14.009Z,60.28
2023-05-05T03:08:14.019Z,60.20
2023-05-05T03:09:13.991Z,57.40
2023-05-05T03:10:13.989Z,61.37
2023-05-05T03:11:14.002Z,59.53
2023-05-05T03:12:13.969Z,58.51
2023-05-05T03:13:14.047Z,54.35
2023-05-05T03:14:13.966Z,57.65
2023-05-05T03:15:13.971Z,64.14
2023-05-05T03:16:14.009Z,62.81
2023-05-05T03:17:13.931Z,60.29
2023-05-05T03:18:13.923Z,60.20
2023-05-05T03:19:13.917Z,60.81
2023-05-05T03:20:13.935Z,57.66
2023-05-05T03:21:13.907Z,58.67
2023-05-05T03:22:13.884Z,64.62
2023-05-05T03:23:13.877Z,60.24
2023-05-05T03:24:13.874Z,62.23
2023-05-05T03:25:13.884Z,62.76
2023-05-05T03:26:13.861Z,66.71
2023-05-05T03:27:13.844Z,56.36
2023-05-05T03:28:13.840Z,60.26
2023-05-05T03:29:13.870Z,61.91
2023-05-05T03:30:13.843Z,59.28
2023-05-05T03:31:13.830Z,56.55
2023-05-05T03:32:13.963Z,62.86
2023-05-05T03:33:13.806Z,61.65
2023-05-05T03:34:13.819Z,62.20
2023-05-05T03:35:13.788Z,62.44
2023-05-05T03:36:13.787Z,61.89
2023-05-05T03:37:13.770Z,61.53
2023-05-05T03:38:13.754Z,61.06
2023-05-05T03:39:13.800Z,61.95
2023-05-05T03:40:13.745Z,62.76
2023-05-05T03:41:13.742Z,59.75
2023-05-05T03:42:13.730Z,61.35
2023-05-05T03:43:13.770Z,62.70
2023-05-05T03:44:13.751Z,64.03
2023-05-05T03:45:13.706Z,62.99
2023-05-05T03:46:13.777Z,61.53
2023-05-05T03:47:13.696Z,60.98
2023-05-05T03:48:13.729Z,61.21
2023-05-05T03:49:13.676Z,59.69
2023-05-05T03:50:13.663Z,61.96
2023-05-05T03:51:13.658Z,61.55
2023-05-05T03:52:14.949Z,61.40
2023-05-05T03:53:13.668Z,59.28
2023-05-05T03:54:13.638Z,60.62
2023-05-05T03:55:13.628Z,59.32
2023-05-05T03:56:13.621Z,60.22
2023-05-05T03:57:13.618Z,57.26
2023-05-05T03:58:13.636Z,59.82
2023-05-05T03:59:13.603Z,60.02
2023-05-05T04:00:13.591Z,61.59
2023-05-05T04:01:13.588Z,60.02
2023-05-05T04:02:13.622Z,63.95
2023-05-05T04:03:13.742Z,61.15
2023-05-05T04:04:13.577Z,59.76
2023-05-05T04:05:13.591Z,63.71
2023-05-05T04:06:13.559Z,60.15
2023-05-05T04:07:13.554Z,63.10
2023-05-05T04:08:14.537Z,63.82
2023-05-05T04:09:13.566Z,62.18
2023-05-05T04:10:13.523Z,64.74
2023-05-05T04:11:13.510Z,60.20
2023-05-05T04:12:13.531Z,59.97
2023-05-05T04:13:13.512Z,61.05
2023-05-05T04:14:13.488Z,63.62
2023-05-05T04:15:13.478Z,62.41
2023-05-05T04:16:13.531Z,58.93
2023-05-05T04:17:13.497Z,61.72
2023-05-05T04:18:13.463Z,62.03
2023-05-05T04:19:13.460Z,60.73
2023-05-05T04:20:13.453Z,62.43
2023-05-05T04:21:13.470Z,61.58
2023-05-05T04:22:13.422Z,62.19
2023-05-05T04:23:13.417Z,60.98
2023-05-05T04:24:13.406Z,58.26
2023-05-05T04:25:13.404Z,60.67
2023-05-05T04:26:13.425Z,58.92
2023-05-05T04:27:13.385Z,62.96
2023-05-05T04:28:13.371Z,61.79
2023-05-05T04:29:13.363Z,61.34
2023-05-05T04:30:13.388Z,61.65
2023-05-05T04:31:13.428Z,61.06
2023-05-05T04:32:13.350Z,62.65
2023-05-05T04:33:13.336Z,62.06
2023-05-05T04:34:13.328Z,60.43
2023-05-05T04:35:13.357Z,60.47
2023-05-05T04:36:13.318Z,61.03
2023-05-05T04:37:13.303Z,59.85
2023-05-05T04:38:13.296Z,58.78
2023-05-05T04:39:13.292Z,60.94
2023-05-05T04:40:13.317Z,58.00
2023-05-05T04:41:13.275Z,61.47
2023-05-05T04:42:13.261Z,60.83
2023-05-05T04:43:13.256Z,62.07
2023-05-05T04:44:13.285Z,59.68
2023-05-05T04:45:13.259Z,60.03
2023-05-05T04:46:13.269Z,59.91
2023-05-05T04:47:14.645Z,62.05
2023-05-05T04:48:14.218Z,60.47
2023-05-05T04:49:13.230Z,60.92
2023-05-05T04:50:13.196Z,63.50
2023-05-05T04:51:13.189Z,59.70
2023-05-05T04:52:13.188Z,58.13
2023-05-05T04:53:13.174Z,60.83
2023-05-05T04:54:13.190Z,62.70
2023-05-05T04:55:13.152Z,61.32
2023-05-05T04:56:13.148Z,62.53
2023-05-05T04:57:13.139Z,64.78
2023-05-05T04:58:13.155Z,61.98
2023-05-05T04:59:13.144Z,63.92
2023-05-05T05:00:13.111Z,62.08
2023-05-05T05:01:13.120Z,60.91
2023-05-05T05:02:13.145Z,58.06
2023-05-05T05:03:13.201Z,55.30
2023-05-05T05:04:13.088Z,60.60
2023-05-05T05:05:13.086Z,59.39
2023-05-05T05:06:13.075Z,62.06
2023-05-05T05:07:13.058Z,59.58
2023-05-05T05:08:13.075Z,60.73
2023-05-05T05:09:13.064Z,58.45
2023-05-05T05:10:13.037Z,57.96
2023-05-05T05:11:13.021Z,62.00
2023-05-05T05:12:13.040Z,63.52
2023-05-05T05:13:13.268Z,64.83
2023-05-05T05:14:13.012Z,61.88
2023-05-05T05:15:12.994Z,62.18
2023-05-05T05:16:13.036Z,62.95
2023-05-05T05:17:13.001Z,61.91
2023-05-05T05:18:12.964Z,60.69
2023-05-05T05:19:12.957Z,63.25
2023-05-05T05:20:12.950Z,60.49
2023-05-05T05:21:12.944Z,63.21
2023-05-05T05:22:12.960Z,63.31
2023-05-05T05:23:12.929Z,62.47
2023-05-05T05:24:12.916Z,63.07
2023-05-05T05:25:12.936Z,60.75
2023-05-05T05:26:12.936Z,62.40
2023-05-05T05:27:12.921Z,64.54
2023-05-05T05:28:12.882Z,62.18
2023-05-05T05:29:12.888Z,63.50
2023-05-05T05:30:12.881Z,62.40
2023-05-05T05:31:12.894Z,62.07
2023-05-05T05:32:12.975Z,57.72
2023-05-05T05:33:12.887Z,64.31
2023-05-05T05:34:13.041Z,62.09
2023-05-05T05:35:12.873Z,61.18
2023-05-05T05:36:12.857Z,60.41
2023-05-05T05:37:12.816Z,63.84
2023-05-05T05:38:12.820Z,63.19
2023-05-05T05:39:12.798Z,63.21
2023-05-05T05:40:12.789Z,64.33
2023-05-05T05:41:12.831Z,62.65
2023-05-05T05:42:12.776Z,59.76
2023-05-05T05:43:12.769Z,59.09
2023-05-05T05:44:12.763Z,63.67
2023-05-05T05:45:12.791Z,64.09
2023-05-05T05:46:12.803Z,61.98
2023-05-05T05:47:12.739Z,60.38
2023-05-05T05:48:12.730Z,61.54
2023-05-05T05:49:12.717Z,59.96
2023-05-05T05:50:12.739Z,57.91
2023-05-05T05:51:12.708Z,59.67
2023-05-05T05:52:12.698Z,59.43
2023-05-05T05:53:12.695Z,60.67
2023-05-05T05:54:12.676Z,62.31
2023-05-05T05:55:12.693Z,55.13
2023-05-05T05:56:12.661Z,59.85
2023-05-05T05:57:12.654Z,61.40
2023-05-05T05:58:12.646Z,57.90
2023-05-05T05:59:12.639Z,60.50
2023-05-05T06:00:12.653Z,60.01
2023-05-05T06:01:12.636Z,58.16
2023-05-05T06:02:12.634Z,59.66
2023-05-05T06:03:12.794Z,62.48
2023-05-05T06:04:12.720Z,60.22
2023-05-05T06:05:12.619Z,61.99
2023-05-05T06:06:12.601Z,59.16
2023-05-05T06:07:12.561Z,63.13
2023-05-05T06:08:13.571Z,57.34
2023-05-05T06:09:12.588Z,59.42
2023-05-05T06:10:26.390Z,56.21
2023-05-05T06:11:14.554Z,57.09
2023-05-05T06:12:12.537Z,57.64
2023-05-05T06:13:13.556Z,59.59
2023-05-05T06:14:12.557Z,58.25
2023-05-05T06:15:12.520Z,49.88
2023-05-05T06:16:12.620Z,55.24
2023-05-05T06:17:13.514Z,57.15
2023-05-05T06:18:12.563Z,56.76
2023-05-05T06:19:12.511Z,57.37
2023-05-05T06:20:12.476Z,56.64
2023-05-05T06:21:12.515Z,57.66
2023-05-05T06:22:12.468Z,58.56
2023-05-05T06:23:12.491Z,57.67
2023-05-05T06:24:12.457Z,61.35
2023-05-05T06:25:12.449Z,60.24
2023-05-05T06:26:12.443Z,58.53
2023-05-05T06:27:12.434Z,59.17
2023-05-05T06:28:12.457Z,61.43
2023-05-05T06:29:12.548Z,59.82
2023-05-05T06:30:13.422Z,58.71
2023-05-05T06:31:12.437Z,60.63
2023-05-05T06:32:12.425Z,59.12
2023-05-05T06:33:12.415Z,56.37
2023-05-05T06:34:12.389Z,60.68
2023-05-05T06:35:12.379Z,59.86
2023-05-05T06:36:12.390Z,60.51
2023-05-05T06:37:12.403Z,59.57
2023-05-05T06:38:12.360Z,53.33
2023-05-05T06:39:13.528Z,58.52
2023-05-05T06:40:12.353Z,60.58
2023-05-05T06:41:12.349Z,58.69
2023-05-05T06:42:12.369Z,62.78
2023-05-05T06:43:12.325Z,55.34
2023-05-05T06:44:12.323Z,63.55
2023-05-05T06:45:12.310Z,55.09
2023-05-05T06:46:12.394Z,59.91
2023-05-05T06:47:13.126Z,60.25
2023-05-05T06:48:12.293Z,55.53
2023-05-05T06:49:12.284Z,60.65
2023-05-05T06:50:12.279Z,57.83
2023-05-05T06:51:12.292Z,59.32
2023-05-05T06:52:12.265Z,56.11
2023-05-05T06:53:12.255Z,52.20
2023-05-05T06:54:12.254Z,59.69
2023-05-05T06:55:12.250Z,58.46
2023-05-05T06:56:12.289Z,57.65
2023-05-05T06:57:12.235Z,57.14
2023-05-05T06:58:12.228Z,60.65
2023-05-05T06:59:12.225Z,56.09
2023-05-05T07:00:12.210Z,55.68
2023-05-05T07:01:12.278Z,55.71
2023-05-05T07:02:12.193Z,57.63
2023-05-05T07:03:12.379Z,57.46
2023-05-05T07:04:12.246Z,55.40
2023-05-05T07:05:12.214Z,57.14
2023-05-05T07:06:12.202Z,57.81
2023-05-05T07:07:12.185Z,57.28
2023-05-05T07:08:12.152Z,53.30
2023-05-05T07:09:12.152Z,59.60
2023-05-05T07:10:12.170Z,54.18
2023-05-05T07:11:12.135Z,55.07
2023-05-05T07:12:12.127Z,58.56
2023-05-05T07:13:12.201Z,58.00
2023-05-05T07:14:12.115Z,57.47
2023-05-05T07:15:26.126Z,53.48
2023-05-05T07:16:14.137Z,54.85
2023-05-05T07:17:12.095Z,60.65
2023-05-05T07:18:12.124Z,60.76
2023-05-05T07:19:12.171Z,57.39
2023-05-05T07:20:12.106Z,54.89
2023-05-05T07:21:12.067Z,57.20
2023-05-05T07:22:12.074Z,56.85
2023-05-05T07:23:12.056Z,60.71
2023-05-05T07:24:12.098Z,58.38
2023-05-05T07:25:12.047Z,56.40
2023-05-05T07:26:12.058Z,60.83
2023-05-05T07:27:12.037Z,57.48
2023-05-05T07:28:12.025Z,60.84
2023-05-05T07:29:12.068Z,55.51
2023-05-05T07:30:16.282Z,58.64
2023-05-05T07:31:14.008Z,57.29
2023-05-05T07:32:12.049Z,56.94
2023-05-05T07:33:12.035Z,61.05
2023-05-05T07:34:12.004Z,59.93
2023-05-05T07:35:12.038Z,56.43
2023-05-05T07:36:11.977Z,52.98
2023-05-05T07:37:11.970Z,53.07
2023-05-05T07:38:11.989Z,55.85
2023-05-05T07:39:11.957Z,60.17
2023-05-05T07:40:11.960Z,57.40
2023-05-05T07:41:11.944Z,59.51
2023-05-05T07:42:11.950Z,56.04
2023-05-05T07:43:11.947Z,57.84
2023-05-05T07:44:11.911Z,59.67
2023-05-05T07:45:11.907Z,56.74
2023-05-05T07:46:12.039Z,57.64
2023-05-05T07:47:11.933Z,54.34
2023-05-05T07:48:11.915Z,56.66
2023-05-05T07:49:11.881Z,52.78
2023-05-05T07:50:11.871Z,54.26
2023-05-05T07:51:11.929Z,54.27
2023-05-05T07:52:11.890Z,52.55
2023-05-05T07:53:14.871Z,52.84
2023-05-05T07:54:12.860Z,55.68
2023-05-05T07:55:11.843Z,52.48
2023-05-05T07:56:11.836Z,55.68
2023-05-05T07:57:11.872Z,51.40
2023-05-05T07:58:11.842Z,53.81
2023-05-05T07:59:11.816Z,53.21
2023-05-05T08:00:11.924Z,55.25
2023-05-05T08:01:11.825Z,54.10
2023-05-05T08:02:11.844Z,52.90
2023-05-05T08:03:12.307Z,57.47
2023-05-05T08:04:12.850Z,52.89
2023-05-05T08:05:11.923Z,52.79
2023-05-05T08:06:11.805Z,51.97
2023-05-05T08:07:11.870Z,54.34
2023-05-05T08:08:11.762Z,49.18
2023-05-05T08:09:11.765Z,54.53
2023-05-05T08:10:11.814Z,52.98
2023-05-05T08:11:11.770Z,53.85
2023-05-05T08:12:11.742Z,53.24
2023-05-05T08:13:11.768Z,54.83
2023-05-05T08:14:11.770Z,56.06
2023-05-05T08:15:11.878Z,52.04
2023-05-05T08:16:11.777Z,53.02
2023-05-05T08:17:12.276Z,52.68
2023-05-05T08:18:11.703Z,52.19
2023-05-05T08:19:25.103Z,53.78
2023-05-05T08:20:13.714Z,56.10
2023-05-05T08:21:11.689Z,58.68
2023-05-05T08:22:11.679Z,54.19
2023-05-05T08:23:11.725Z,50.32
2023-05-05T08:24:11.691Z,53.29
2023-05-05T08:25:11.686Z,50.52
2023-05-05T08:26:11.684Z,50.74
2023-05-05T08:27:11.653Z,52.78
2023-05-05T08:28:11.635Z,53.62
2023-05-05T08:29:11.667Z,50.23
2023-05-05T08:30:11.626Z,54.81
2023-05-05T08:31:11.669Z,53.09
2023-05-05T08:32:11.610Z,56.41
2023-05-05T08:33:11.626Z,58.26
2023-05-05T08:34:11.637Z,53.52
2023-05-05T08:35:12.194Z,55.48
2023-05-05T08:36:11.607Z,58.07
2023-05-05T08:37:11.579Z,56.94
2023-05-05T08:38:11.599Z,52.88
2023-05-05T08:39:11.813Z,55.73
2023-05-05T08:40:11.569Z,56.27
2023-05-05T08:41:11.551Z,59.96
2023-05-05T08:42:11.755Z,57.58
2023-05-05T08:43:11.570Z,56.36
2023-05-05T08:44:11.544Z,54.46
2023-05-05T08:45:11.835Z,57.46
2023-05-05T08:46:11.522Z,52.48
2023-05-05T08:47:11.546Z,58.01
2023-05-05T08:48:11.548Z,56.99
2023-05-05T08:49:11.492Z,57.31
2023-05-05T08:50:11.500Z,54.95
2023-05-05T08:51:11.485Z,53.62
2023-05-05T08:52:11.512Z,56.88
2023-05-05T08:53:11.513Z,55.37
2023-05-05T08:54:11.456Z,58.00
2023-05-05T08:55:11.518Z,55.22
2023-05-05T08:56:11.456Z,55.76
2023-05-05T08:57:11.461Z,53.89
2023-05-05T08:58:11.425Z,50.72
2023-05-05T08:59:11.424Z,52.03
2023-05-05T09:00:11.413Z,54.27
2023-05-05T09:01:11.437Z,54.60
2023-05-05T09:02:11.443Z,55.26
2023-05-05T09:03:11.492Z,56.78
2023-05-05T09:04:11.391Z,58.39
2023-05-05T09:05:11.467Z,52.93
2023-05-05T09:06:11.396Z,53.83
2023-05-05T09:07:11.396Z,54.08
2023-05-05T09:08:11.381Z,56.28
2023-05-05T09:09:11.375Z,57.62
2023-05-05T09:10:11.406Z,58.53
2023-05-05T09:11:11.476Z,55.85
2023-05-05T09:12:11.333Z,56.49
2023-05-05T09:13:11.350Z,56.11
2023-05-05T09:14:11.323Z,54.70
2023-05-05T09:15:11.332Z,55.76
2023-05-05T09:16:11.363Z,58.96
2023-05-05T09:17:11.342Z,56.66
2023-05-05T09:18:11.377Z,54.23
2023-05-05T09:19:11.297Z,54.01
2023-05-05T09:20:11.316Z,56.48
2023-05-05T09:21:11.303Z,56.33
2023-05-05T09:22:11.253Z,57.78
2023-05-05T09:23:11.254Z,56.33
2023-05-05T09:24:11.252Z,59.07
2023-05-05T09:25:11.280Z,55.37
2023-05-05T09:26:11.229Z,54.96
2023-05-05T09:27:11.276Z,56.10
2023-05-05T09:28:11.216Z,57.63
2023-05-05T09:29:11.214Z,56.92
2023-05-05T09:30:11.243Z,61.00
2023-05-05T09:31:11.240Z,57.87
2023-05-05T09:32:11.244Z,57.72
2023-05-05T09:33:11.209Z,54.80
2023-05-05T09:34:11.199Z,54.38
2023-05-05T09:35:11.204Z,57.49
2023-05-05T09:36:11.157Z,58.32
2023-05-05T09:37:11.147Z,54.31
2023-05-05T09:38:11.137Z,55.25
2023-05-05T09:39:11.155Z,57.61
2023-05-05T09:40:11.120Z,59.56
2023-05-05T09:41:11.118Z,57.15
2023-05-05T09:42:11.105Z,58.31
2023-05-05T09:43:11.158Z,57.71
2023-05-05T09:44:11.127Z,58.89
2023-05-05T09:45:11.093Z,58.77
2023-05-05T09:46:11.133Z,57.36
2023-05-05T09:47:26.009Z,57.68
2023-05-05T09:48:13.092Z,59.77
2023-05-05T09:49:11.072Z,54.70
2023-05-05T09:50:11.045Z,54.53
2023-05-05T09:51:11.038Z,53.05
2023-05-05T09:52:11.026Z,55.94
2023-05-05T09:53:11.044Z,52.50
2023-05-05T09:54:11.036Z,55.22
2023-05-05T09:55:11.015Z,53.12
2023-05-05T09:56:10.996Z,50.82
2023-05-05T09:57:11.000Z,58.32
2023-05-05T09:58:11.063Z,60.36
2023-05-05T09:59:10.991Z,57.76
2023-05-05T10:00:11.140Z,53.38
2023-05-05T10:01:10.972Z,56.83
2023-05-05T10:02:10.956Z,56.52
2023-05-05T10:03:11.025Z,60.84
2023-05-05T10:04:10.937Z,57.75
2023-05-05T10:05:10.947Z,61.11
2023-05-05T10:06:10.921Z,59.95
2023-05-05T10:07:10.953Z,60.22
2023-05-05T10:08:10.940Z,57.99
2023-05-05T10:09:10.890Z,60.49
2023-05-05T10:10:11.067Z,59.46
2023-05-05T10:11:10.894Z,58.62
2023-05-05T10:12:10.895Z,55.99
2023-05-05T10:13:10.884Z,57.01
2023-05-05T10:14:10.870Z,60.56
2023-05-05T10:15:10.976Z,58.16
2023-05-05T10:16:10.914Z,58.22
2023-05-05T10:17:10.856Z,56.23
2023-05-05T10:18:10.916Z,53.03
2023-05-05T10:19:10.832Z,54.82
2023-05-05T10:20:10.840Z,55.94
2023-05-05T10:21:10.831Z,54.19
2023-05-05T10:22:10.823Z,56.33
2023-05-05T10:23:10.789Z,56.55
2023-05-05T10:24:10.823Z,55.61
2023-05-05T10:25:10.791Z,58.49
2023-05-05T10:26:10.808Z,58.77
2023-05-05T10:27:12.139Z,56.80
2023-05-05T10:28:10.760Z,56.90
2023-05-05T10:29:10.751Z,56.34
2023-05-05T10:30:10.877Z,58.40
2023-05-05T10:31:24.478Z,55.53
2023-05-05T10:32:40.676Z,54.26
2023-05-05T10:33:30.237Z,57.05
2023-05-05T10:34:12.828Z,57.27
2023-05-05T10:35:10.708Z,53.74
2023-05-05T10:36:10.730Z,56.18
2023-05-05T10:37:10.707Z,58.87
2023-05-05T10:38:10.684Z,57.07
2023-05-05T10:39:10.691Z,58.16
2023-05-05T10:40:10.896Z,57.06
2023-05-05T10:41:10.689Z,61.30
2023-05-05T10:42:10.654Z,57.77
2023-05-05T10:43:10.640Z,57.27
2023-05-05T10:44:10.641Z,59.66
2023-05-05T10:45:10.707Z,63.81
2023-05-05T10:46:10.670Z,59.91
2023-05-05T10:47:10.700Z,58.24
2023-05-05T10:48:10.794Z,60.02
2023-05-05T10:49:12.913Z,58.91
2023-05-05T10:50:11.619Z,59.54
2023-05-05T10:51:10.593Z,60.30
2023-05-05T10:52:10.580Z,63.00
2023-05-05T10:53:10.594Z,61.29
2023-05-05T10:54:10.667Z,60.71
2023-05-05T10:55:10.603Z,61.52
2023-05-05T10:56:10.555Z,62.22
2023-05-05T10:57:10.612Z,63.53
2023-05-05T10:58:10.541Z,61.97
2023-05-05T10:59:10.556Z,60.64
2023-05-05T11:00:10.610Z,62.10
2023-05-05T11:01:10.545Z,63.78
2023-05-05T11:02:10.504Z,64.88
2023-05-05T11:03:10.576Z,58.70
2023-05-05T11:04:10.541Z,66.03
2023-05-05T11:05:10.499Z,61.87
2023-05-05T11:06:10.478Z,63.03
2023-05-05T11:07:13.823Z,63.72
2023-05-05T11:08:11.462Z,62.48
2023-05-05T11:09:10.481Z,61.62
2023-05-05T11:10:10.698Z,63.76
2023-05-05T11:11:10.451Z,58.25
2023-05-05T11:12:10.444Z,61.38
2023-05-05T11:13:10.608Z,63.29
2023-05-05T11:14:10.435Z,60.97
2023-05-05T11:15:10.409Z,63.23
2023-05-05T11:16:10.445Z,63.50
2023-05-05T11:17:10.393Z,63.39
2023-05-05T11:18:10.420Z,61.77
2023-05-05T11:19:10.424Z,64.27
2023-05-05T11:20:10.505Z,63.38
2023-05-05T11:21:10.377Z,60.75
2023-05-05T11:22:10.350Z,61.82
2023-05-05T11:23:10.413Z,61.49
2023-05-05T11:24:10.342Z,63.94
2023-05-05T11:25:10.342Z,61.95
2023-05-05T11:26:10.325Z,63.65
2023-05-05T11:27:10.315Z,61.74
2023-05-05T11:28:10.329Z,62.32
2023-05-05T11:29:10.302Z,62.96
2023-05-05T11:30:10.589Z,60.67
2023-05-05T11:31:10.302Z,63.48
2023-05-05T11:32:10.300Z,59.60
2023-05-05T11:33:10.305Z,64.40
2023-05-05T11:34:10.258Z,59.75
2023-05-05T11:35:10.358Z,62.48
2023-05-05T11:36:10.241Z,62.70
2023-05-05T11:37:10.266Z,63.32
2023-05-05T11:38:10.227Z,62.05
2023-05-05T11:39:10.222Z,61.96
2023-05-05T11:40:10.387Z,62.51
2023-05-05T11:41:10.215Z,63.28
2023-05-05T11:42:10.928Z,66.50
2023-05-05T11:43:11.200Z,63.67
2023-05-05T11:44:10.194Z,64.28
2023-05-05T11:45:10.194Z,62.22
2023-05-05T11:46:10.250Z,62.73
2023-05-05T11:47:10.197Z,62.28
2023-05-05T11:48:10.190Z,62.29
2023-05-05T11:49:10.149Z,62.30
2023-05-05T11:50:10.271Z,60.43
2023-05-05T11:51:10.278Z,63.12
2023-05-05T11:52:10.135Z,62.65
2023-05-05T11:53:10.116Z,61.50
2023-05-05T11:54:10.111Z,65.74
2023-05-05T11:55:10.110Z,63.75
2023-05-05T11:56:10.131Z,62.20
2023-05-05T11:57:10.092Z,59.68
2023-05-05T11:58:10.084Z,65.51
2023-05-05T11:59:10.085Z,59.54
2023-05-05T12:00:10.403Z,61.40
2023-05-05T12:01:10.079Z,65.66
2023-05-05T12:02:10.056Z,62.76
2023-05-05T12:03:10.095Z,64.04
2023-05-05T12:04:10.147Z,63.80
2023-05-05T12:05:10.052Z,58.47
2023-05-05T12:06:10.037Z,59.26
2023-05-05T12:07:10.152Z,61.40
2023-05-05T12:08:10.002Z,62.17
2023-05-05T12:09:09.995Z,59.70
2023-05-05T12:10:10.170Z,62.38
2023-05-05T12:11:10.001Z,64.99
2023-05-05T12:12:09.985Z,61.67
2023-05-05T12:13:09.992Z,60.81
2023-05-05T12:14:09.975Z,61.65
2023-05-05T12:15:10.984Z,63.25
2023-05-05T12:16:09.964Z,63.42
2023-05-05T12:17:09.947Z,62.19
2023-05-05T12:18:09.940Z,63.20
2023-05-05T12:19:09.939Z,65.59
2023-05-05T12:20:10.331Z,61.90
2023-05-05T12:21:09.895Z,64.48
2023-05-05T12:22:09.892Z,61.27
2023-05-05T12:23:09.940Z,62.18
2023-05-05T12:24:09.905Z,63.56
2023-05-05T12:25:09.882Z,64.63
2023-05-05T12:26:09.870Z,62.74
2023-05-05T12:27:09.848Z,61.67
2023-05-05T12:28:09.883Z,62.12
2023-05-05T12:29:09.870Z,62.49
2023-05-05T12:30:09.946Z,61.10
2023-05-05T12:31:09.846Z,61.46
2023-05-05T12:32:09.887Z,64.24
2023-05-05T12:33:09.830Z,62.59
2023-05-05T12:34:09.830Z,61.21
2023-05-05T12:35:09.784Z,62.59
2023-05-05T12:36:09.794Z,61.32
2023-05-05T12:37:09.779Z,63.81
2023-05-05T12:38:09.800Z,64.04
2023-05-05T12:39:09.763Z,60.97
2023-05-05T12:40:09.937Z,62.66
2023-05-05T12:41:09.756Z,61.74
2023-05-05T12:42:09.767Z,62.97
2023-05-05T12:43:09.752Z,64.98
2023-05-05T12:44:09.719Z,64.78
2023-05-05T12:45:09.728Z,62.74
2023-05-05T12:46:09.908Z,63.39
2023-05-05T12:47:09.736Z,61.59
2023-05-05T12:48:09.701Z,63.42
2023-05-05T12:49:09.697Z,63.19
2023-05-05T12:50:09.882Z,61.98
2023-05-05T12:51:09.659Z,62.57
2023-05-05T12:52:10.677Z,61.20